createdAt,value
2023-04-15T00:01:04.064Z,75.26
2023-04-15T00:04:08.231Z,75.08
2023-04-15T00:07:11.051Z,75.28
2023-04-15T00:10:14.420Z,75.01
2023-04-15T00:13:17.078Z,75.31
2023-04-15T00:16:21.952Z,75.32
2023-04-15T00:19:26.310Z,75.25
2023-04-15T00:22:29.063Z,75.19
2023-04-15T00:25:31.749Z,75.29
2023-04-15T00:28:34.604Z,75.44
2023-04-15T00:31:37.589Z,75.37
2023-04-15T00:34:41.635Z,75.24
2023-04-15T00:37:46.011Z,75.36
2023-04-15T00:40:49.384Z,75.72
2023-04-15T00:43:52.143Z,75.66
2023-04-15T00:46:55.065Z,75.71
2023-04-15T00:49:59.206Z,76.25
2023-04-15T00:53:04.711Z,76.15
2023-04-15T00:56:08.118Z,76.15
2023-04-15T00:59:11.270Z,76.29
2023-04-15T01:02:16.654Z,76.33
2023-04-15T01:05:21.005Z,76.41
2023-04-15T01:08:23.918Z,76.82
2023-04-15T01:11:29.266Z,76.90
2023-04-15T01:14:32.713Z,76.70
2023-04-15T01:17:35.852Z,76.75
2023-04-15T01:20:41.040Z,76.91
2023-04-15T01:23:48.393Z,77.19
2023-04-15T01:26:52.646Z,77.13
2023-04-15T01:29:55.314Z,77.15
2023-04-15T01:32:58.142Z,77.44
2023-04-15T01:36:01.604Z,77.04
2023-04-15T01:39:05.706Z,77.14
2023-04-15T01:42:09.773Z,77.03
2023-04-15T01:45:13.675Z,77.05
2023-04-15T01:48:16.912Z,77.22
2023-04-15T01:51:20.276Z,77.16
2023-04-15T01:54:23.126Z,77.37
2023-04-15T01:57:28.296Z,77.47
2023-04-15T02:00:32.591Z,77.62
2023-04-15T02:03:35.469Z,77.66
2023-04-15T02:06:38.240Z,77.69
2023-04-15T02:09:40.948Z,77.56
2023-04-15T02:12:45.017Z,77.47
2023-04-15T02:15:52.504Z,77.38
2023-04-15T02:18:55.151Z,77.75
2023-04-15T02:21:57.838Z,77.83
2023-04-15T02:25:00.507Z,78.07
2023-04-15T02:28:05.448Z,78.38
2023-04-15T02:31:09.616Z,78.45
2023-04-15T02:34:14.039Z,78.24
2023-04-15T02:37:19.328Z,78.33
2023-04-15T02:40:28.381Z,78.16
2023-04-15T02:43:32.420Z,78.60
2023-04-15T02:46:35.235Z,78.71
2023-04-15T02:49:37.957Z,78.61
2023-04-15T02:52:41.287Z,78.71
2023-04-15T02:55:43.990Z,78.86
2023-04-15T02:58:50.580Z,79.03
2023-04-15T03:01:53.680Z,79.20
2023-04-15T03:04:56.532Z,78.74
2023-04-15T03:07:59.239Z,78.82
2023-04-15T03:11:02.717Z,78.79
2023-04-15T03:14:06.815Z,78.72
2023-04-15T03:17:09.534Z,78.61
2023-04-15T03:20:12.311Z,78.67
2023-04-15T03:23:15.022Z,78.81
2023-04-15T03:26:25.578Z,78.82
2023-04-15T03:29:29.853Z,79.14
2023-04-15T03:32:32.563Z,78.99
2023-04-15T03:35:35.650Z,78.96
2023-04-15T03:38:38.300Z,78.99
2023-04-15T03:41:41.053Z,78.90
2023-04-15T03:44:45.058Z,79.32
2023-04-15T03:47:48.418Z,79.48
2023-04-15T03:50:51.114Z,79.29
2023-04-15T03:53:54.013Z,79.46
2023-04-15T03:56:56.808Z,79.31
2023-04-15T04:00:00.953Z,79.51
2023-04-15T04:03:03.987Z,79.58
2023-04-15T04:06:07.053Z,79.71
2023-04-15T04:09:09.714Z,79.92
2023-04-15T04:12:12.509Z,79.96
2023-04-15T04:15:16.697Z,80.09
2023-04-15T04:18:19.378Z,79.82
2023-04-15T04:21:22.177Z,79.80
2023-04-15T04:24:25.146Z,79.95
2023-04-15T04:27:27.849Z,80.16
2023-04-15T04:30:31.970Z,80.41
2023-04-15T04:33:34.807Z,80.19
2023-04-15T04:36:37.467Z,80.20
2023-04-15T04:39:40.182Z,80.14
2023-04-15T04:42:43.010Z,80.33
2023-04-15T04:45:47.374Z,80.56
2023-04-15T04:48:50.098Z,80.58
2023-04-15T04:51:53.386Z,80.69
2023-04-15T04:54:56.227Z,80.48
2023-04-15T04:57:58.914Z,80.64
2023-04-15T05:01:03.097Z,80.43
2023-04-15T05:04:07.791Z,80.45
2023-04-15T05:07:10.810Z,80.28
2023-04-15T05:10:15.459Z,80.01
2023-04-15T05:13:18.254Z,80.34
2023-04-15T05:16:22.488Z,79.83
2023-04-15T05:19:25.162Z,79.96
2023-04-15T05:22:27.889Z,79.66
2023-04-15T05:25:31.003Z,79.44
2023-04-15T05:28:33.660Z,79.24
2023-04-15T05:31:37.825Z,79.21
2023-04-15T05:34:40.619Z,79.14
2023-04-15T05:37:43.496Z,78.83
2023-04-15T05:40:46.255Z,78.72
2023-04-15T05:43:49.020Z,78.80
2023-04-15T05:46:53.327Z,78.42
2023-04-15T05:49:56.467Z,78.63
2023-04-15T05:52:59.260Z,78.27
2023-04-15T05:56:01.897Z,78.07
2023-04-15T05:59:04.607Z,78.17
2023-04-15T06:02:09.077Z,77.80
2023-04-15T06:05:11.933Z,77.68
2023-04-15T06:08:14.703Z,77.42
2023-04-15T06:11:17.568Z,77.06
2023-04-15T06:14:20.248Z,76.48
2023-04-15T06:17:24.277Z,75.89
2023-04-15T06:20:27.084Z,75.33
2023-04-15T06:23:29.812Z,74.61
2023-04-15T06:26:32.514Z,74.40
2023-04-15T06:29:35.216Z,74.58
2023-04-15T06:32:39.478Z,74.06
2023-04-15T06:35:42.221Z,73.90
2023-04-15T06:38:44.901Z,73.61
2023-04-15T06:41:47.636Z,73.17
2023-04-15T06:44:50.694Z,73.35
2023-04-15T06:47:54.760Z,72.70
2023-04-15T06:50:58.319Z,73.01
2023-04-15T06:54:00.973Z,72.33
2023-04-15T06:57:03.708Z,71.95
2023-04-15T07:00:07.525Z,71.86
2023-04-15T07:03:13.369Z,71.35
2023-04-15T07:06:16.038Z,71.25
2023-04-15T07:09:19.388Z,70.77
2023-04-15T07:12:22.075Z,70.88
2023-04-15T07:15:27.275Z,71.32
2023-04-15T07:18:32.217Z,71.33
2023-04-15T07:21:35.263Z,71.36
2023-04-15T07:24:37.963Z,71.47
2023-04-15T07:27:41.164Z,71.54
2023-04-15T07:30:43.945Z,70.77
2023-04-15T07:33:48.057Z,70.81
2023-04-15T07:36:52.063Z,70.42
2023-04-15T07:39:54.786Z,70.56
2023-04-15T07:42:58.404Z,70.07
2023-04-15T07:46:02.146Z,69.69
2023-04-15T07:49:06.518Z,69.18
2023-04-15T07:52:09.202Z,69.02
2023-04-15T07:55:12.043Z,69.42
2023-04-15T07:58:14.723Z,69.18
2023-04-15T08:01:17.708Z,68.34
2023-04-15T08:04:21.970Z,68.01
2023-04-15T08:07:25.292Z,67.78
2023-04-15T08:10:27.963Z,67.54
2023-04-15T08:13:30.630Z,67.02
2023-04-15T08:16:33.457Z,66.66
2023-04-15T08:19:37.928Z,66.25
2023-04-15T08:22:41.622Z,66.12
2023-04-15T08:25:44.320Z,65.54
2023-04-15T08:28:47.750Z,65.16
2023-04-15T08:31:50.537Z,64.21
2023-04-15T08:34:55.531Z,63.74
2023-04-15T08:37:58.190Z,63.35
2023-04-15T08:41:04.774Z,62.59
2023-04-15T08:44:08.076Z,62.24
2023-04-15T08:47:14.016Z,62.15
2023-04-15T08:50:19.093Z,61.56
2023-04-15T08:53:22.406Z,61.95
2023-04-15T08:56:26.783Z,61.60
2023-04-15T08:59:31.529Z,61.21
2023-04-15T09:02:34.729Z,60.25
2023-04-15T09:05:39.476Z,60.27
2023-04-15T09:08:42.248Z,59.54
2023-04-15T09:11:44.991Z,59.24
2023-04-15T09:14:48.283Z,58.55
2023-04-15T09:17:50.983Z,58.02
2023-04-15T09:20:55.133Z,57.91
2023-04-15T09:23:59.864Z,57.66
2023-04-15T09:27:03.986Z,57.09
2023-04-15T09:30:10.574Z,55.91
2023-04-15T09:33:15.905Z,54.61
2023-04-15T09:36:20.222Z,50.39
2023-04-15T09:39:23.056Z,50.33
2023-04-15T09:42:26.937Z,49.65
2023-04-15T09:45:30.308Z,49.26
2023-04-15T09:48:33.093Z,48.54
2023-04-15T09:51:37.770Z,49.21
2023-04-15T09:54:41.645Z,50.34
2023-04-15T09:57:45.236Z,47.89
2023-04-15T10:00:49.066Z,50.10
2023-04-15T10:03:52.988Z,49.36
2023-04-15T10:06:58.428Z,49.03
2023-04-15T10:10:02.047Z,50.20
2023-04-15T10:13:04.997Z,50.06
2023-04-15T10:16:11.806Z,48.44
2023-04-15T10:19:16.508Z,48.77
2023-04-15T10:22:20.983Z,49.00
2023-04-15T10:25:24.753Z,49.69
2023-04-15T10:28:27.635Z,49.98
2023-04-15T10:31:30.746Z,50.89
2023-04-15T10:34:33.843Z,51.75
2023-04-15T10:37:39.045Z,51.77
2023-04-15T10:40:42.109Z,51.36
2023-04-15T10:43:50.234Z,51.12
2023-04-15T10:46:53.162Z,50.76
2023-04-15T10:49:59.960Z,49.86
2023-04-15T10:53:05.728Z,47.33
2023-04-15T10:56:08.772Z,47.65
2023-04-15T10:59:11.688Z,46.34
2023-04-15T11:02:15.457Z,46.81
2023-04-15T11:05:19.241Z,44.47
2023-04-15T11:08:56.390Z,46.56
2023-04-15T11:12:09.976Z,45.70
2023-04-15T11:15:28.275Z,46.79
2023-04-15T11:18:35.783Z,47.27
2023-04-15T11:21:38.605Z,47.39
2023-04-15T11:24:50.488Z,46.46
2023-04-15T11:27:54.803Z,47.02
2023-04-15T11:30:58.773Z,47.12
2023-04-15T11:34:02.865Z,47.02
2023-04-15T11:37:06.739Z,46.77
2023-04-15T11:40:11.918Z,47.16
2023-04-15T11:43:16.885Z,47.69
2023-04-15T11:46:20.084Z,48.82
2023-04-15T11:49:30.344Z,49.32
2023-04-15T11:52:33.153Z,50.31
2023-04-15T11:55:45.141Z,50.36
2023-04-15T11:58:48.130Z,49.29
2023-04-15T12:01:52.399Z,50.39
2023-04-15T12:05:05.253Z,52.70
2023-04-15T12:08:08.132Z,54.70
2023-04-15T12:11:12.181Z,60.28
2023-04-15T12:14:22.327Z,62.44
2023-04-15T12:17:25.073Z,66.02
2023-04-15T12:20:27.920Z,68.23
2023-04-15T12:23:30.901Z,71.03
2023-04-15T12:26:37.570Z,72.68
2023-04-15T12:29:43.179Z,71.94
2023-04-15T12:32:47.918Z,71.45
2023-04-15T12:35:50.670Z,71.08
2023-04-15T12:38:53.363Z,70.70
2023-04-15T12:41:57.720Z,70.12
2023-04-15T12:45:00.628Z,70.11
2023-04-15T12:48:03.524Z,69.25
2023-04-15T12:51:06.378Z,68.77
2023-04-15T12:54:09.387Z,68.65
2023-04-15T12:57:13.460Z,68.42
2023-04-15T13:00:17.028Z,68.12
2023-04-15T13:03:19.892Z,68.14
2023-04-15T13:06:24.103Z,67.68
2023-04-15T13:09:27.118Z,67.39
2023-04-15T13:12:31.269Z,67.18
2023-04-15T13:15:33.985Z,67.69
2023-04-15T13:18:36.822Z,67.88
2023-04-15T13:21:39.580Z,68.58
2023-04-15T13:24:42.208Z,68.60
2023-04-15T13:27:46.740Z,69.19
2023-04-15T13:30:49.469Z,69.34
2023-04-15T13:33:52.196Z,70.00
2023-04-15T13:36:54.999Z,69.74
2023-04-15T13:39:58.638Z,70.13
2023-04-15T13:43:03.446Z,70.19
2023-04-15T13:46:06.593Z,70.64
2023-04-15T13:49:09.444Z,70.97
2023-04-15T13:52:12.384Z,71.09
2023-04-15T13:55:19.330Z,71.19
2023-04-15T13:58:24.761Z,71.13
2023-04-15T14:01:27.761Z,71.48
2023-04-15T14:04:30.558Z,71.36
2023-04-15T14:07:33.439Z,71.05
2023-04-15T14:10:36.589Z,71.45
2023-04-15T14:13:40.738Z,71.38
2023-04-15T14:16:43.791Z,71.74
2023-04-15T14:19:46.796Z,72.33
2023-04-15T14:22:49.519Z,73.17
2023-04-15T14:25:52.482Z,73.86
2023-04-15T14:28:56.805Z,74.47
2023-04-15T14:32:04.541Z,75.14
2023-04-15T14:35:15.335Z,75.62
2023-04-15T14:38:18.155Z,75.66
2023-04-15T14:41:21.021Z,75.71
2023-04-15T14:44:25.132Z,75.41
2023-04-15T14:47:27.962Z,75.93
2023-04-15T14:50:30.848Z,75.92
2023-04-15T14:53:34.219Z,76.15
2023-04-15T14:56:37.632Z,76.52
2023-04-15T14:59:41.795Z,76.70
2023-04-15T15:02:44.847Z,76.64
2023-04-15T15:05:48.908Z,76.73
2023-04-15T15:08:51.701Z,76.89
2023-04-15T15:11:54.504Z,77.31
2023-04-15T15:14:58.580Z,77.52
2023-04-15T15:18:02.243Z,77.88
2023-04-15T15:21:05.455Z,77.87
2023-04-15T15:24:08.820Z,78.35
2023-04-15T15:27:11.667Z,78.40
2023-04-15T15:30:15.988Z,78.53
2023-04-15T15:33:18.617Z,78.85
2023-04-15T15:36:21.340Z,78.85
2023-04-15T15:39:24.166Z,79.16
2023-04-15T15:42:26.932Z,78.96
2023-04-15T15:45:31.120Z,79.55
2023-04-15T15:48:33.882Z,80.80
2023-04-15T15:51:36.778Z,80.96
2023-04-15T15:54:40.684Z,80.88
2023-04-15T15:57:44.372Z,81.19
2023-04-15T16:00:48.745Z,81.41
2023-04-15T16:03:51.596Z,81.20
2023-04-15T16:06:54.462Z,81.28
2023-04-15T16:09:57.169Z,82.12
2023-04-15T16:12:59.987Z,81.88
2023-04-15T16:16:05.043Z,81.87
2023-04-15T16:19:07.809Z,81.63
2023-04-15T16:22:10.502Z,82.26
2023-04-15T16:25:13.265Z,82.37
2023-04-15T16:28:25.623Z,82.12
2023-04-15T16:31:31.062Z,82.53
2023-04-15T16:34:35.422Z,82.52
2023-04-15T16:37:38.199Z,82.62
2023-04-15T16:40:41.278Z,82.49
2023-04-15T16:43:44.379Z,82.60
2023-04-15T16:46:48.444Z,83.21
2023-04-15T16:49:51.233Z,83.96
2023-04-15T16:52:54.018Z,84.20
2023-04-15T16:55:56.936Z,84.00
2023-04-15T16:59:00.015Z,84.19
2023-04-15T17:02:04.316Z,84.21
2023-04-15T17:05:08.283Z,84.58
2023-04-15T17:08:10.975Z,84.45
2023-04-15T17:11:15.128Z,84.76
2023-04-15T17:14:17.883Z,84.94
2023-04-15T17:17:22.790Z,85.25
2023-04-15T17:20:26.488Z,85.49
2023-04-15T17:23:29.249Z,85.40
2023-04-15T17:26:32.174Z,85.37
2023-04-15T17:29:34.984Z,85.15
2023-04-15T17:32:40.112Z,85.58
2023-04-15T17:35:43.070Z,85.66
2023-04-15T17:38:45.928Z,85.55
2023-04-15T17:41:48.701Z,85.64
2023-04-15T17:44:51.350Z,86.16
2023-04-15T17:47:55.408Z,86.37
2023-04-15T17:50:58.084Z,86.31
2023-04-15T17:54:00.931Z,86.41
2023-04-15T17:57:03.664Z,86.65
2023-04-15T18:00:08.855Z,86.55
2023-04-15T18:03:13.190Z,86.81
2023-04-15T18:06:17.917Z,86.90
2023-04-15T18:09:20.588Z,86.71
2023-04-15T18:12:23.471Z,87.04
2023-04-15T18:15:26.413Z,87.36
2023-04-15T18:18:30.768Z,87.69
2023-04-15T18:21:33.453Z,87.71
2023-04-15T18:24:36.849Z,87.79
2023-04-15T18:27:40.083Z,88.22
2023-04-15T18:30:42.939Z,88.49
2023-04-15T18:33:46.928Z,88.68
2023-04-15T18:36:49.686Z,88.86
2023-04-15T18:39:52.567Z,89.77
2023-04-15T18:42:55.285Z,89.67
2023-04-15T18:45:58.100Z,89.97
2023-04-15T18:49:03.037Z,89.89
2023-04-15T18:52:06.610Z,89.73
2023-04-15T18:55:09.474Z,89.65
2023-04-15T18:58:12.218Z,90.36
2023-04-15T19:01:15.206Z,90.35
2023-04-15T19:04:19.645Z,90.27
2023-04-15T19:07:23.127Z,90.97
2023-04-15T19:10:27.928Z,90.74
2023-04-15T19:13:30.671Z,90.76
2023-04-15T19:16:33.628Z,91.14
2023-04-15T19:19:38.576Z,91.16
2023-04-15T19:22:43.036Z,91.21
2023-04-15T19:25:45.799Z,91.08
2023-04-15T19:28:48.537Z,90.96
2023-04-15T19:31:51.351Z,91.11
2023-04-15T19:34:55.385Z,91.12
2023-04-15T19:37:58.141Z,90.94
2023-04-15T19:41:00.889Z,90.87
2023-04-15T19:44:04.485Z,90.92
2023-04-15T19:47:07.194Z,90.78
2023-04-15T19:50:12.741Z,91.02
2023-04-15T19:53:15.539Z,90.85
2023-04-15T19:56:18.248Z,91.03
2023-04-15T19:59:20.997Z,91.26
2023-04-15T20:02:23.947Z,91.12
2023-04-15T20:05:28.058Z,91.14
2023-04-15T20:08:30.915Z,91.25
2023-04-15T20:12:48.261Z,91.14
2023-04-15T20:14:56.307Z,91.48
2023-04-15T20:17:59.033Z,92.07
2023-04-15T20:21:03.112Z,92.23
2023-04-15T20:24:07.030Z,92.49
2023-04-15T20:27:10.092Z,92.47
2023-04-15T20:30:12.962Z,92.95
2023-04-15T20:33:15.725Z,93.41
2023-04-15T20:36:19.794Z,93.37
2023-04-15T20:39:22.545Z,93.38
2023-04-15T20:42:25.306Z,93.92
2023-04-15T20:45:28.055Z,94.09
2023-04-15T20:48:30.797Z,94.30
2023-04-15T20:51:37.741Z,94.15
2023-04-15T20:54:40.524Z,94.47
2023-04-15T20:57:43.280Z,94.42
2023-04-15T21:00:46.899Z,94.49
2023-04-15T21:03:49.792Z,94.93
2023-04-15T21:06:54.077Z,95.06
2023-04-15T21:09:57.141Z,95.13
2023-04-15T21:12:59.784Z,94.99
2023-04-15T21:16:02.979Z,96.59
2023-04-15T21:19:06.146Z,97.24
2023-04-15T21:22:10.335Z,97.59
2023-04-15T21:25:13.362Z,98.14
2023-04-15T21:28:16.184Z,98.03
2023-04-15T21:31:19.095Z,98.12
2023-04-15T21:34:22.102Z,97.92
2023-04-15T21:37:26.131Z,97.79
2023-04-15T21:40:28.839Z,97.35
2023-04-15T21:43:31.562Z,97.29
2023-04-15T21:46:35.573Z,96.77
2023-04-15T21:49:38.921Z,97.29
2023-04-15T21:52:42.967Z,97.67
2023-04-15T21:55:45.792Z,97.33
2023-04-15T21:58:48.514Z,97.28
2023-04-15T22:01:54.485Z,98.01
2023-04-15T22:04:57.524Z,98.26
2023-04-15T22:08:04.664Z,98.03
2023-04-15T22:11:07.496Z,98.25
2023-04-15T22:14:10.532Z,98.32
2023-04-15T22:17:13.269Z,98.24
2023-04-15T22:20:16.231Z,98.21
2023-04-15T22:23:20.885Z,97.69
2023-04-15T22:26:23.581Z,97.99
2023-04-15T22:29:26.359Z,97.80
2023-04-15T22:32:29.070Z,97.77
2023-04-15T22:35:31.752Z,98.01
2023-04-15T22:38:37.904Z,97.88
2023-04-15T22:41:40.615Z,97.56
2023-04-15T22:44:43.291Z,97.37
2023-04-15T22:47:45.978Z,97.60
2023-04-15T22:50:49.334Z,97.77
2023-04-15T22:53:53.435Z,97.50
2023-04-15T22:56:56.440Z,97.61
2023-04-15T22:59:59.951Z,97.71
2023-04-15T23:03:03.321Z,97.32
2023-04-15T23:06:06.952Z,97.23
2023-04-15T23:09:11.279Z,97.64
2023-04-15T23:12:14.841Z,97.48
2023-04-15T23:15:17.533Z,98.05
2023-04-15T23:18:20.825Z,97.79
2023-04-15T23:21:25.460Z,98.11
2023-04-15T23:24:30.187Z,97.85
2023-04-15T23:27:33.008Z,97.98
2023-04-15T23:30:35.868Z,97.53
2023-04-15T23:33:38.854Z,97.77
2023-04-15T23:36:41.506Z,97.88
2023-04-15T23:39:45.741Z,97.95
2023-04-15T23:42:48.418Z,98.30
2023-04-15T23:45:51.153Z,98.13
2023-04-15T23:48:53.835Z,98.09
2023-04-15T23:51:57.196Z,98.46
2023-04-15T23:55:02.192Z,98.29
2023-04-15T23:58:04.903Z,98.36
